createdAt,value
2023-05-23T00:01:32.774Z,51.92
2023-05-23T00:04:03.021Z,52.22
2023-05-23T00:06:35.522Z,52.27
2023-05-23T00:09:07.025Z,52.29
2023-05-23T00:11:40.840Z,52.46
2023-05-23T00:14:13.655Z,52.51
2023-05-23T00:16:44.472Z,52.61
2023-05-23T00:19:15.327Z,52.34
2023-05-23T00:21:48.973Z,52.55
2023-05-23T00:24:24.100Z,52.78
2023-05-23T00:26:52.930Z,52.77
2023-05-23T00:29:21.954Z,52.70
2023-05-23T00:31:52.340Z,52.91
2023-05-23T00:34:21.019Z,53.10
2023-05-23T00:36:53.746Z,53.23
2023-05-23T00:39:22.679Z,53.35
2023-05-23T00:41:55.567Z,53.37
2023-05-23T00:44:24.415Z,53.34
2023-05-23T00:46:56.413Z,53.40
2023-05-23T00:49:30.978Z,53.48
2023-05-23T00:52:03.715Z,53.49
2023-05-23T00:54:34.554Z,53.45
2023-05-23T00:57:07.954Z,53.50
2023-05-23T00:59:37.800Z,53.70
2023-05-23T01:02:08.642Z,53.75
2023-05-23T01:04:40.397Z,53.70
2023-05-23T01:07:13.926Z,53.70
2023-05-23T01:09:46.864Z,53.92
2023-05-23T01:12:26.296Z,53.92
2023-05-23T01:15:04.606Z,53.92
2023-05-23T01:17:36.057Z,53.88
2023-05-23T01:20:13.356Z,54.07
2023-05-23T01:23:11.216Z,53.97
2023-05-23T01:26:03.473Z,54.06
2023-05-23T01:28:41.292Z,54.12
2023-05-23T01:31:17.581Z,54.24
2023-05-23T01:33:49.581Z,54.30
2023-05-23T01:36:21.675Z,54.48
2023-05-23T01:38:51.372Z,54.37
2023-05-23T01:41:19.942Z,54.54
2023-05-23T01:43:48.763Z,54.58
2023-05-23T01:46:18.875Z,54.57
2023-05-23T01:48:58.023Z,54.66
2023-05-23T01:51:28.202Z,54.85
2023-05-23T01:53:58.023Z,55.04
2023-05-23T01:56:31.228Z,55.13
2023-05-23T01:59:01.463Z,54.94
2023-05-23T02:01:31.608Z,54.86
2023-05-23T02:04:03.868Z,54.92
2023-05-23T02:06:33.775Z,54.94
2023-05-23T02:09:06.794Z,54.99
2023-05-23T02:11:38.918Z,55.09
2023-05-23T02:14:09.248Z,55.11
2023-05-23T02:16:37.827Z,55.21
2023-05-23T02:19:06.949Z,55.19
2023-05-23T02:21:38.619Z,55.39
2023-05-23T02:24:07.707Z,55.40
2023-05-23T02:26:37.353Z,55.35
2023-05-23T02:29:07.143Z,55.35
2023-05-23T02:31:36.220Z,55.44
2023-05-23T02:34:06.846Z,55.61
2023-05-23T02:36:38.679Z,55.54
2023-05-23T02:39:10.646Z,55.61
2023-05-23T02:41:39.397Z,55.68
2023-05-23T02:44:08.280Z,55.87
2023-05-23T02:46:37.090Z,56.07
2023-05-23T02:49:06.376Z,56.17
2023-05-23T02:51:35.612Z,56.15
2023-05-23T02:54:05.519Z,56.20
2023-05-23T02:56:39.335Z,56.40
2023-05-23T02:59:09.462Z,56.34
2023-05-23T03:01:38.149Z,56.15
2023-05-23T03:04:06.925Z,56.07
2023-05-23T03:06:39.464Z,56.04
2023-05-23T03:09:10.702Z,56.29
2023-05-23T03:11:39.842Z,56.38
2023-05-23T03:14:09.325Z,56.29
2023-05-23T03:16:38.399Z,56.45
2023-05-23T03:19:09.925Z,56.44
2023-05-23T03:21:40.433Z,56.51
2023-05-23T03:24:10.158Z,56.71
2023-05-23T03:26:38.985Z,56.63
2023-05-23T03:29:11.075Z,56.62
2023-05-23T03:31:39.889Z,56.68
2023-05-23T03:34:10.368Z,56.76
2023-05-23T03:36:41.947Z,56.78
2023-05-23T03:39:18.403Z,56.85
2023-05-23T03:41:47.532Z,56.84
2023-05-23T03:44:19.821Z,56.96
2023-05-23T03:47:19.680Z,56.96
2023-05-23T03:49:52.196Z,57.05
2023-05-23T03:52:25.105Z,57.30
2023-05-23T03:54:55.611Z,57.25
2023-05-23T03:57:24.482Z,57.32
2023-05-23T03:59:53.672Z,57.20
2023-05-23T04:02:23.296Z,57.48
2023-05-23T04:04:53.658Z,57.56
2023-05-23T04:07:22.745Z,57.80
2023-05-23T04:09:52.502Z,57.84
2023-05-23T04:12:21.940Z,58.95
2023-05-23T04:14:59.732Z,59.73
2023-05-23T04:17:30.727Z,59.35
2023-05-23T04:20:03.334Z,58.62
2023-05-23T04:22:35.862Z,58.13
2023-05-23T04:25:07.654Z,57.81
2023-05-23T04:27:40.726Z,57.44
2023-05-23T04:30:21.930Z,57.38
2023-05-23T04:32:51.738Z,57.55
2023-05-23T04:35:24.278Z,57.60
2023-05-23T04:37:58.440Z,57.34
2023-05-23T04:40:42.952Z,57.64
2023-05-23T04:43:21.547Z,57.74
2023-05-23T04:46:12.314Z,58.34
2023-05-23T04:48:45.569Z,59.22
2023-05-23T04:51:18.730Z,59.35
2023-05-23T04:53:58.316Z,59.17
2023-05-23T04:56:28.520Z,58.61
2023-05-23T04:58:57.790Z,58.06
2023-05-23T05:01:28.352Z,56.85
2023-05-23T05:04:00.161Z,56.21
2023-05-23T05:06:29.073Z,55.69
2023-05-23T05:08:58.290Z,54.80
2023-05-23T05:11:31.713Z,54.64
2023-05-23T05:14:03.682Z,53.94
2023-05-23T05:16:45.855Z,53.56
2023-05-23T05:19:20.442Z,52.87
2023-05-23T05:21:50.311Z,51.97
2023-05-23T05:24:22.907Z,50.90
2023-05-23T05:26:56.085Z,50.05
2023-05-23T05:29:32.120Z,49.28
2023-05-23T05:32:02.828Z,49.37
2023-05-23T05:34:37.255Z,49.01
2023-05-23T05:37:06.288Z,49.13
2023-05-23T05:39:35.125Z,48.83
2023-05-23T05:42:04.881Z,48.59
2023-05-23T05:44:41.445Z,48.39
2023-05-23T05:47:10.289Z,47.90
2023-05-23T05:49:40.707Z,47.28
2023-05-23T05:52:14.604Z,46.94
2023-05-23T05:54:44.538Z,46.94
2023-05-23T05:57:13.333Z,46.69
2023-05-23T05:59:46.372Z,46.30
2023-05-23T06:02:15.123Z,45.82
2023-05-23T06:04:47.738Z,45.74
2023-05-23T06:07:24.008Z,45.36
2023-05-23T06:09:54.702Z,44.71
2023-05-23T06:12:23.810Z,44.23
2023-05-23T06:14:56.141Z,43.39
2023-05-23T06:17:29.059Z,42.84
2023-05-23T06:20:02.772Z,42.44
2023-05-23T06:22:31.780Z,42.19
2023-05-23T06:25:05.322Z,42.65
2023-05-23T06:27:39.987Z,42.76
2023-05-23T06:30:22.683Z,42.79
2023-05-23T06:32:51.277Z,42.69
2023-05-23T06:35:27.014Z,42.95
2023-05-23T06:37:56.854Z,43.01
2023-05-23T06:40:30.881Z,43.10
2023-05-23T06:42:59.763Z,43.34
2023-05-23T06:45:55.201Z,43.60
2023-05-23T06:48:34.330Z,43.62
2023-05-23T06:51:10.894Z,43.66
2023-05-23T06:53:40.002Z,43.86
2023-05-23T06:56:17.161Z,43.95
2023-05-23T06:58:54.745Z,43.98
2023-05-23T07:01:24.138Z,44.08
2023-05-23T07:03:54.076Z,44.13
2023-05-23T07:06:32.167Z,44.26
2023-05-23T07:09:01.221Z,44.24
2023-05-23T07:11:30.350Z,44.23
2023-05-23T07:14:02.662Z,44.26
2023-05-23T07:17:04.690Z,44.34
2023-05-23T07:19:36.479Z,44.43
2023-05-23T07:22:06.036Z,44.48
2023-05-23T07:24:36.814Z,44.48
2023-05-23T07:27:09.287Z,44.49
2023-05-23T07:29:41.584Z,44.62
2023-05-23T07:32:18.424Z,44.58
2023-05-23T07:34:53.197Z,44.46
2023-05-23T07:37:27.908Z,44.42
2023-05-23T07:39:57.527Z,44.42
2023-05-23T07:42:26.507Z,44.42
2023-05-23T07:44:56.625Z,44.42
2023-05-23T07:47:27.047Z,44.20
2023-05-23T07:49:56.257Z,44.25
2023-05-23T07:52:28.967Z,44.05
2023-05-23T07:54:58.096Z,43.92
2023-05-23T07:57:30.285Z,43.89
2023-05-23T07:59:59.505Z,43.96
2023-05-23T08:02:29.925Z,43.77
2023-05-23T08:04:59.552Z,43.71
2023-05-23T08:07:29.965Z,43.51
2023-05-23T08:10:01.191Z,43.57
2023-05-23T08:12:32.361Z,43.46
2023-05-23T08:15:11.596Z,43.40
2023-05-23T08:17:56.319Z,43.28
2023-05-23T08:20:30.670Z,43.28
2023-05-23T08:23:11.701Z,43.22
2023-05-23T08:25:40.709Z,43.11
2023-05-23T08:28:39.459Z,42.67
2023-05-23T08:31:09.104Z,42.76
2023-05-23T08:33:45.516Z,42.75
2023-05-23T08:36:18.813Z,42.53
2023-05-23T08:38:49.545Z,42.60
2023-05-23T08:41:25.481Z,42.58
2023-05-23T08:43:58.794Z,42.45
2023-05-23T08:46:51.028Z,42.35
2023-05-23T08:49:32.385Z,42.28
2023-05-23T08:52:03.553Z,42.13
2023-05-23T08:54:33.529Z,42.05
2023-05-23T08:57:05.254Z,41.86
2023-05-23T08:59:39.145Z,41.66
2023-05-23T09:02:12.012Z,41.28
2023-05-23T09:04:42.624Z,41.21
2023-05-23T09:07:22.461Z,41.01
2023-05-23T09:09:53.578Z,41.04
2023-05-23T09:12:23.217Z,40.82
2023-05-23T09:14:52.848Z,40.57
2023-05-23T09:17:23.721Z,40.38
2023-05-23T09:19:53.554Z,40.20
2023-05-23T09:22:49.338Z,39.93
2023-05-23T09:25:22.314Z,39.56
2023-05-23T09:27:54.609Z,39.41
2023-05-23T09:30:36.208Z,39.65
2023-05-23T09:33:18.063Z,39.43
2023-05-23T09:35:47.084Z,39.07
2023-05-23T09:38:17.917Z,38.99
2023-05-23T09:40:47.610Z,39.06
2023-05-23T09:43:23.076Z,38.84
2023-05-23T09:45:55.984Z,38.80
2023-05-23T09:48:30.575Z,38.49
2023-05-23T09:51:09.611Z,38.79
2023-05-23T09:53:39.528Z,38.70
2023-05-23T09:56:14.894Z,38.47
2023-05-23T09:58:48.067Z,37.91
2023-05-23T10:01:19.770Z,37.78
2023-05-23T10:03:55.125Z,37.50
2023-05-23T10:06:39.715Z,37.35
2023-05-23T10:09:14.841Z,37.24
2023-05-23T10:12:20.518Z,37.26
2023-05-23T10:14:55.598Z,37.10
2023-05-23T10:17:37.184Z,37.06
2023-05-23T10:20:12.007Z,36.66
2023-05-23T10:22:43.547Z,36.51
2023-05-23T10:25:14.551Z,36.43
2023-05-23T10:27:48.966Z,36.42
2023-05-23T10:30:25.902Z,36.55
2023-05-23T10:32:55.620Z,36.34
2023-05-23T10:35:42.970Z,36.19
2023-05-23T10:38:26.214Z,36.35
2023-05-23T10:41:03.047Z,36.45
2023-05-23T10:43:46.752Z,36.32
2023-05-23T10:46:18.811Z,36.15
2023-05-23T10:48:47.995Z,35.88
2023-05-23T10:51:22.198Z,35.83
2023-05-23T10:53:54.817Z,35.85
2023-05-23T10:56:25.748Z,35.82
2023-05-23T10:58:57.183Z,35.84
2023-05-23T11:01:27.762Z,35.60
2023-05-23T11:04:04.882Z,35.37
2023-05-23T11:06:39.049Z,35.33
2023-05-23T11:09:12.985Z,35.01
2023-05-23T11:11:57.783Z,34.93
2023-05-23T11:14:54.814Z,34.89
2023-05-23T11:17:35.077Z,34.97
2023-05-23T11:20:06.722Z,35.14
2023-05-23T11:22:36.732Z,35.03
2023-05-23T11:25:09.767Z,35.09
2023-05-23T11:27:40.293Z,35.12
2023-05-23T11:30:13.298Z,35.25
2023-05-23T11:32:49.738Z,35.28
2023-05-23T11:35:21.585Z,35.25
2023-05-23T11:37:50.409Z,35.23
2023-05-23T11:40:29.302Z,35.23
2023-05-23T11:42:59.474Z,34.92
2023-05-23T11:45:29.843Z,34.87
2023-05-23T11:48:02.173Z,34.60
2023-05-23T11:50:32.407Z,34.24
2023-05-23T11:53:01.225Z,34.39
2023-05-23T11:55:31.034Z,34.34
2023-05-23T11:58:00.755Z,34.29
2023-05-23T12:00:31.086Z,34.21
2023-05-23T12:03:09.646Z,34.32
2023-05-23T12:05:44.925Z,34.26
2023-05-23T12:08:14.592Z,34.01
2023-05-23T12:10:56.738Z,33.85
2023-05-23T12:13:28.697Z,33.89
2023-05-23T12:15:59.589Z,33.68
2023-05-23T12:18:31.077Z,33.80
2023-05-23T12:21:02.592Z,33.81
2023-05-23T12:23:36.132Z,33.69
2023-05-23T12:26:09.584Z,33.59
2023-05-23T12:28:39.718Z,33.64
2023-05-23T12:31:18.170Z,33.31
2023-05-23T12:33:48.819Z,33.21
2023-05-23T12:36:25.108Z,33.10
2023-05-23T12:39:01.831Z,33.42
2023-05-23T12:41:32.485Z,33.47
2023-05-23T12:44:03.948Z,33.40
2023-05-23T12:46:33.187Z,33.36
2023-05-23T12:49:03.487Z,33.21
2023-05-23T12:51:32.585Z,33.15
2023-05-23T12:54:02.052Z,33.24
2023-05-23T12:56:31.747Z,33.28
2023-05-23T12:59:02.884Z,33.49
2023-05-23T13:01:34.075Z,33.50
2023-05-23T13:04:04.821Z,33.31
2023-05-23T13:06:34.932Z,33.32
2023-05-23T13:09:03.721Z,33.37
2023-05-23T13:11:32.695Z,33.50
2023-05-23T13:14:01.262Z,33.29
2023-05-23T13:16:30.732Z,33.26
2023-05-23T13:18:59.739Z,33.23
2023-05-23T13:21:28.780Z,33.19
2023-05-23T13:23:57.616Z,33.37
2023-05-23T13:26:27.614Z,33.52
2023-05-23T13:28:56.487Z,33.39
2023-05-23T13:31:27.249Z,33.23
2023-05-23T13:34:07.482Z,33.26
2023-05-23T13:36:37.608Z,33.27
2023-05-23T13:39:06.867Z,33.25
2023-05-23T13:41:36.428Z,33.07
2023-05-23T13:44:05.058Z,33.06
2023-05-23T13:46:39.726Z,33.02
2023-05-23T13:49:08.410Z,33.06
2023-05-23T13:51:37.865Z,33.13
2023-05-23T13:54:06.606Z,32.98
2023-05-23T13:56:39.196Z,33.00
2023-05-23T13:59:08.127Z,32.95
2023-05-23T14:01:47.259Z,33.09
2023-05-23T14:04:19.161Z,32.87
2023-05-23T14:06:48.360Z,33.03
2023-05-23T14:09:23.587Z,33.09
2023-05-23T14:11:53.500Z,32.88
2023-05-23T14:14:22.289Z,32.92
2023-05-23T14:16:54.560Z,32.80
2023-05-23T14:19:23.254Z,32.82
2023-05-23T14:21:52.300Z,32.88
2023-05-23T14:24:22.144Z,32.77
2023-05-23T14:26:52.931Z,32.70
2023-05-23T14:29:23.341Z,32.79
2023-05-23T14:31:54.258Z,32.99
2023-05-23T14:34:23.705Z,32.88
2023-05-23T14:36:53.240Z,32.80
2023-05-23T14:39:25.011Z,32.92
2023-05-23T14:41:53.999Z,32.85
2023-05-23T14:44:22.762Z,32.96
2023-05-23T14:46:58.650Z,32.92
2023-05-23T14:49:29.705Z,32.77
2023-05-23T14:52:01.462Z,32.86
2023-05-23T14:54:30.282Z,32.93
2023-05-23T14:57:00.818Z,32.85
2023-05-23T14:59:36.798Z,32.76
2023-05-23T15:02:11.157Z,32.78
2023-05-23T15:04:40.587Z,32.78
2023-05-23T15:07:11.107Z,32.75
2023-05-23T15:09:40.594Z,32.70
2023-05-23T15:12:10.299Z,32.71
2023-05-23T15:14:39.009Z,32.84
2023-05-23T15:17:08.212Z,32.80
2023-05-23T15:19:44.041Z,32.85
2023-05-23T15:22:29.764Z,32.86
2023-05-23T15:25:05.751Z,33.07
2023-05-23T15:27:37.609Z,32.99
2023-05-23T15:30:11.172Z,33.09
2023-05-23T15:32:41.380Z,33.12
2023-05-23T15:35:10.930Z,32.91
2023-05-23T15:37:42.980Z,32.91
2023-05-23T15:40:13.416Z,33.03
2023-05-23T15:42:42.096Z,33.01
2023-05-23T15:45:21.953Z,33.08
2023-05-23T15:47:50.684Z,33.10
2023-05-23T15:50:20.522Z,33.01
2023-05-23T15:52:49.274Z,33.06
2023-05-23T15:55:21.970Z,33.05
2023-05-23T15:57:50.658Z,33.13
2023-05-23T16:00:27.441Z,33.19
2023-05-23T16:02:59.641Z,33.01
2023-05-23T16:05:30.375Z,33.13
2023-05-23T16:07:59.382Z,33.11
2023-05-23T16:10:28.447Z,33.10
2023-05-23T16:12:57.141Z,33.10
2023-05-23T16:15:25.753Z,33.23
2023-05-23T16:17:54.610Z,33.21
2023-05-23T16:20:23.719Z,33.25
2023-05-23T16:22:52.608Z,33.23
2023-05-23T16:25:21.895Z,33.35
2023-05-23T16:27:51.400Z,33.29
2023-05-23T16:30:26.596Z,33.26
2023-05-23T16:32:55.832Z,33.32
2023-05-23T16:35:24.858Z,33.39
2023-05-23T16:37:53.511Z,33.45
2023-05-23T16:40:22.200Z,33.42
2023-05-23T16:42:51.015Z,33.48
2023-05-23T16:45:23.810Z,33.45
2023-05-23T16:48:13.394Z,33.54
2023-05-23T16:50:42.939Z,33.56
2023-05-23T16:53:15.520Z,33.61
2023-05-23T16:55:47.643Z,33.74
2023-05-23T16:58:21.185Z,33.73
2023-05-23T17:00:50.409Z,33.87
2023-05-23T17:03:25.465Z,33.89
2023-05-23T17:05:55.689Z,34.04
2023-05-23T17:08:29.920Z,34.04
2023-05-23T17:10:58.997Z,34.19
2023-05-23T17:13:33.866Z,34.23
2023-05-23T17:16:09.797Z,34.44
2023-05-23T17:18:39.264Z,34.55
2023-05-23T17:21:08.358Z,34.67
2023-05-23T17:23:37.775Z,34.76
2023-05-23T17:26:09.305Z,34.87
2023-05-23T17:28:38.515Z,34.93
2023-05-23T17:31:08.136Z,35.02
2023-05-23T17:33:40.290Z,35.12
2023-05-23T17:36:09.734Z,35.21
2023-05-23T17:38:41.308Z,35.24
2023-05-23T17:41:11.638Z,35.42
2023-05-23T17:43:41.632Z,35.60
2023-05-23T17:46:10.660Z,35.78
2023-05-23T17:48:47.786Z,35.89
2023-05-23T17:51:23.429Z,36.03
2023-05-23T17:54:01.934Z,36.18
2023-05-23T17:56:36.177Z,36.26
2023-05-23T17:59:05.258Z,36.47
2023-05-23T18:01:41.964Z,36.62
2023-05-23T18:04:14.873Z,36.65
2023-05-23T18:06:44.005Z,36.97
2023-05-23T18:09:12.965Z,37.10
2023-05-23T18:11:43.769Z,37.26
2023-05-23T18:14:16.133Z,37.37
2023-05-23T18:17:12.277Z,37.58
2023-05-23T18:19:42.278Z,37.69
2023-05-23T18:22:13.777Z,37.88
2023-05-23T18:24:43.957Z,37.95
2023-05-23T18:27:20.148Z,38.15
2023-05-23T18:29:51.529Z,38.26
2023-05-23T18:32:22.047Z,38.47
2023-05-23T18:34:52.828Z,38.53
2023-05-23T18:37:24.992Z,38.74
2023-05-23T18:39:57.994Z,38.91
2023-05-23T18:42:31.537Z,39.04
2023-05-23T18:45:07.210Z,39.07
2023-05-23T18:47:38.496Z,39.08
2023-05-23T18:50:09.228Z,39.38
2023-05-23T18:52:38.393Z,39.43
2023-05-23T18:55:10.846Z,39.59
2023-05-23T18:57:39.912Z,39.76
2023-05-23T19:00:12.744Z,39.75
2023-05-23T19:02:44.621Z,39.79
2023-05-23T19:05:14.287Z,39.97
2023-05-23T19:07:44.651Z,39.96
2023-05-23T19:10:13.450Z,40.19
2023-05-23T19:12:43.072Z,40.23
2023-05-23T19:15:13.192Z,40.55
2023-05-23T19:17:42.149Z,40.60
2023-05-23T19:20:14.123Z,40.73
2023-05-23T19:25:25.961Z,40.79
2023-05-23T19:27:55.636Z,40.84
2023-05-23T19:30:29.473Z,40.95
2023-05-23T19:33:00.886Z,41.03
2023-05-23T19:35:30.192Z,41.20
2023-05-23T19:37:59.960Z,41.16
2023-05-23T19:40:28.709Z,41.32
2023-05-23T19:42:57.961Z,41.43
2023-05-23T19:45:28.170Z,41.60
2023-05-23T19:48:00.200Z,41.75
2023-05-23T19:50:29.957Z,41.82
2023-05-23T19:52:59.825Z,42.03
2023-05-23T19:55:28.732Z,42.05
2023-05-23T19:57:57.417Z,42.24
2023-05-23T20:00:26.317Z,42.33
2023-05-23T20:02:56.330Z,42.31
2023-05-23T20:05:25.242Z,42.60
2023-05-23T20:07:54.016Z,42.46
2023-05-23T20:10:26.158Z,42.59
2023-05-23T20:12:54.795Z,42.78
2023-05-23T20:15:35.321Z,42.92
2023-05-23T20:18:12.357Z,42.96
2023-05-23T20:20:44.244Z,43.14
2023-05-23T20:23:15.474Z,43.19
2023-05-23T20:25:46.060Z,43.31
2023-05-23T20:28:15.673Z,43.29
2023-05-23T20:30:45.688Z,43.47
2023-05-23T20:33:15.813Z,43.66
2023-05-23T20:35:47.787Z,43.50
2023-05-23T20:38:18.027Z,43.68
2023-05-23T20:40:48.889Z,43.66
2023-05-23T20:43:21.719Z,43.86
2023-05-23T20:45:50.881Z,43.95
2023-05-23T20:48:20.241Z,44.07
2023-05-23T20:50:48.862Z,44.07
2023-05-23T20:53:18.361Z,44.09
2023-05-23T20:55:47.823Z,44.25
2023-05-23T20:58:17.855Z,44.36
2023-05-23T21:00:46.924Z,44.28
2023-05-23T21:03:20.484Z,44.43
2023-05-23T21:05:50.322Z,44.45
2023-05-23T21:08:22.176Z,44.50
2023-05-23T21:10:53.301Z,44.50
2023-05-23T21:13:23.543Z,44.50
2023-05-23T21:15:52.417Z,44.65
2023-05-23T21:18:23.529Z,44.73
2023-05-23T21:20:52.398Z,44.59
2023-05-23T21:23:21.185Z,44.67
2023-05-23T21:25:49.730Z,44.69
2023-05-23T21:28:22.793Z,44.77
2023-05-23T21:30:52.044Z,44.88
2023-05-23T21:33:24.463Z,44.96
2023-05-23T21:35:53.376Z,44.98
2023-05-23T21:38:24.435Z,45.03
2023-05-23T21:40:53.143Z,45.01
2023-05-23T21:43:22.218Z,44.98
2023-05-23T21:45:51.190Z,45.21
2023-05-23T21:48:21.768Z,45.04
2023-05-23T21:50:50.761Z,45.38
2023-05-23T21:53:21.551Z,45.32
2023-05-23T21:55:50.613Z,45.28
2023-05-23T21:58:23.250Z,45.43
2023-05-23T22:00:52.716Z,45.44
2023-05-23T22:03:31.716Z,45.40
2023-05-23T22:06:00.656Z,45.47
2023-05-23T22:08:32.854Z,45.64
2023-05-23T22:11:03.909Z,45.59
2023-05-23T22:13:33.705Z,45.67
2023-05-23T22:16:04.529Z,45.63
2023-05-23T22:21:11.779Z,45.71
2023-05-23T22:23:44.154Z,45.61
2023-05-23T22:26:13.767Z,45.75
2023-05-23T22:28:42.897Z,45.70
2023-05-23T22:31:13.300Z,45.73
2023-05-23T22:33:42.536Z,45.87
2023-05-23T22:36:14.493Z,45.77
2023-05-23T22:38:43.895Z,45.58
2023-05-23T22:41:12.809Z,45.78
2023-05-23T22:43:46.385Z,45.75
2023-05-23T22:46:15.591Z,45.76
2023-05-23T22:48:47.199Z,45.77
2023-05-23T22:51:18.719Z,45.72
2023-05-23T22:53:50.010Z,45.61
2023-05-23T22:56:19.633Z,45.76
2023-05-23T22:58:49.640Z,45.94
2023-05-23T23:01:21.274Z,45.80
2023-05-23T23:03:52.367Z,46.02
2023-05-23T23:06:21.522Z,46.21
2023-05-23T23:08:53.511Z,46.16
2023-05-23T23:11:22.275Z,46.05
2023-05-23T23:13:51.152Z,46.16
2023-05-23T23:16:20.474Z,46.02
2023-05-23T23:18:51.193Z,46.13
2023-05-23T23:21:20.547Z,46.11
2023-05-23T23:23:49.366Z,46.24
2023-05-23T23:26:18.600Z,46.16
2023-05-23T23:28:49.721Z,45.94
2023-05-23T23:31:21.329Z,46.24
2023-05-23T23:33:50.238Z,46.24
2023-05-23T23:36:21.118Z,46.13
2023-05-23T23:38:50.675Z,46.18
2023-05-23T23:41:23.157Z,46.34
2023-05-23T23:43:52.105Z,46.33
2023-05-23T23:46:23.127Z,46.22
2023-05-23T23:48:51.980Z,46.38
2023-05-23T23:51:25.618Z,46.33
2023-05-23T23:53:56.001Z,46.26
2023-05-23T23:56:25.592Z,46.41
2023-05-23T23:58:56.914Z,46.41
